Kaami — C6VO9 — position and weather

sailwx.info

Track history (hours):
 
Tides and Currents Weather Stations Pressure Air Temp Water Temp Dewpoint Dewpoint Depression Visibility Wind Speed Wind Dir Waves Ship Positions

Kaami

Last reported at 2015-Mar-04 07:33 UTC. Time now 2015-Mar-04 08:35 UTC.
Position N 51°27' E 000°21'.

Length 90 m; draft 3.6 m.

Type: Cargo ship. MMSI: 308542000.

Date/timePositionNaut miles runAvg speedWind from/ knotsBaromVisibWave heightAir tempDewpointWater temp
2015-Mar-04 07:33N 51°27' E 000°21'0 0.0
2015-Mar-04 06:34N 51°27' E 000°21'0 0.0
2015-Mar-04 05:34N 51°27' E 000°21'0 0.0
2015-Mar-04 04:33N 51°27' E 000°21'0 0.0
2015-Mar-04 03:34N 51°27' E 000°21'0 0.0
2015-Mar-04 02:32N 51°27' E 000°21'0 0.0
2015-Mar-04 01:33N 51°27' E 000°21'0 0.0
2015-Mar-04 00:32N 51°27' E 000°21'0 0.0
2015-Mar-03 23:34N 51°27' E 000°21'0 0.0
2015-Mar-03 22:34N 51°27' E 000°21'0 0.0
2015-Mar-03 21:33N 51°27' E 000°21'0 0.0
2015-Mar-03 20:32N 51°27' E 000°21'0 0.0
2015-Mar-03 19:29N 51°27' E 000°21'0 0.0
2015-Mar-03 18:32N 51°27' E 000°21'0 0.0
2015-Mar-03 17:34N 51°27' E 000°21'0 0.0
2015-Mar-03 16:32N 51°27' E 000°21'0 0.0
2015-Mar-03 15:32N 51°27' E 000°21'0 0.0
2015-Mar-03 14:34N 51°27' E 000°21'0 0.0
2015-Mar-03 13:34N 51°27' E 000°21'0 0.4
2015-Mar-03 12:34N 51°27' E 000°20'6 6.2
2015-Mar-03 11:34N 51°30' E 000°29'1110.6
2015-Mar-03 10:33N 51°29' E 000°46'10 9.6
2015-Mar-03 09:34N 51°30' E 001°02'1010.3
2015-Mar-03 08:33N 51°29' E 001°18'1010.1
2015-Mar-03 07:33N 51°30' E 001°34'10 9.7
2015-Mar-03 06:33N 51°29' E 001°50'10 9.8
2015-Mar-03 05:33N 51°25' E 002°04'10 9.9
2015-Mar-03 04:33N 51°21' E 002°19'11 9.7
2015-Mar-03 03:22N 51°23' E 002°37'7 9.0
2015-Mar-03 02:33N 51°22' E 002°49'9 9.4
2015-Mar-03 01:33N 51°22' E 003°04'6 4.5
2015-Mar-03 00:08N 51°20' E 003°13'2 4.0
2015-Mar-02 23:33N 51°18' E 003°12'2 2.1
2015-Mar-02 22:31N 51°15' E 003°13'0 0.0
2015-Mar-02 21:31N 51°15' E 003°13'0 0.0
2015-Mar-02 20:28N 51°16' E 003°13'0 0.0
2015-Mar-02 19:22N 51°15' E 003°13'0 0.0
2015-Mar-02 18:22N 51°15' E 003°13'0 0.0
2015-Mar-02 17:31N 51°15' E 003°13'0 0.0
2015-Mar-02 16:31N 51°15' E 003°13'0 0.0
2015-Mar-02 15:19N 51°15' E 003°13'0 0.0
2015-Mar-02 14:31N 51°15' E 003°13'0 0.0
2015-Mar-02 13:25N 51°15' E 003°13'0 0.0
2015-Mar-02 12:31N 51°15' E 003°13'0 0.0
2015-Mar-02 11:31N 51°15' E 003°13'0 0.0
2015-Mar-02 10:31N 51°15' E 003°13'0 0.0
2015-Mar-02 09:31N 51°15' E 003°13'0 0.0
2015-Mar-02 08:31N 51°15' E 003°13'0 0.0
2015-Mar-02 07:31N 51°15' E 003°13'0 0.0
2015-Mar-02 06:31N 51°15' E 003°13'0 0.0
2015-Mar-02 05:34N 51°15' E 003°13'0 0.0
2015-Mar-02 04:30N 51°15' E 003°13'0 0.0
2015-Mar-02 03:33N 51°15' E 003°13'0 0.0
2015-Mar-02 02:33N 51°15' E 003°13'0 0.0
2015-Mar-02 01:33N 51°15' E 003°13'0 0.0
2015-Mar-02 00:27N 51°15' E 003°13'0 0.0
2015-Mar-01 23:30N 51°15' E 003°13'0 0.0
2015-Mar-01 22:24N 51°16' E 003°13'0 0.0
2015-Mar-01 21:30N 51°15' E 003°13'0 0.0
2015-Mar-01 20:33N 51°16' E 003°13'0 0.0
2015-Mar-01 19:33N 51°15' E 003°13'0 0.0
2015-Mar-01 18:33N 51°15' E 003°13'0 0.0
2015-Mar-01 17:27N 51°15' E 003°13'0 0.0
2015-Mar-01 16:33N 51°15' E 003°13'0 0.0
2015-Mar-01 15:33N 51°15' E 003°13'0 0.0
2015-Mar-01 14:30N 51°15' E 003°13'0 0.0
2015-Mar-01 13:24N 51°15' E 003°13'0 0.0
2015-Mar-01 12:33N 51°16' E 003°13'0 0.0
2015-Mar-01 11:30N 51°15' E 003°13'0 0.0
2015-Mar-01 10:33N 51°15' E 003°13'0 0.0
2015-Mar-01 09:33N 51°15' E 003°13'0 0.0
2015-Mar-01 08:33N 51°15' E 003°13'0 0.1
2015-Mar-01 07:34N 51°16' E 003°13'3 3.0
2015-Mar-01 06:34N 51°19' E 003°12'2 1.7
2015-Mar-01 05:33N 51°20' E 003°13'6 5.6
2015-Mar-01 04:33N 51°22' E 003°04'1010.3
2015-Mar-01 03:33N 51°22' E 002°48'10 9.4
2015-Mar-01 02:30N 51°22' E 002°32'10 9.6
2015-Mar-01 01:30N 51°18' E 002°18'11 9.8
2015-Mar-01 00:26N 51°13' E 002°04'9 9.7
2015-Feb-28 23:30N 51°08' E 001°51'9 9.5
2015-Feb-28 22:33N 51°02' E 001°41'10 9.8
2015-Feb-28 21:32N 50°54' E 001°31'88 8.0
2015-Feb-28 10:33N 50°36' W 000°45'8 7.7
2015-Feb-28 09:33N 50°39' W 000°55'9 8.8
2015-Feb-28 08:33N 50°45' W 001°06'9 9.2
2015-Feb-28 07:33N 50°50' W 001°19'6 6.2
2015-Feb-28 06:32N 50°54' W 001°26'0 0.0
2015-Feb-28 05:32N 50°54' W 001°26'0 0.0
2015-Feb-28 04:32N 50°54' W 001°26'0 0.0
2015-Feb-28 03:32N 50°54' W 001°26'0 0.0
2015-Feb-28 02:32N 50°54' W 001°26'0 0.0
2015-Feb-28 01:32N 50°54' W 001°26'0 0.0
2015-Feb-28 00:32N 50°54' W 001°26'0 0.0
2015-Feb-27 23:32N 50°54' W 001°26'0 0.0
2015-Feb-27 22:32N 50°54' W 001°26'0 0.0
2015-Feb-27 21:32N 50°54' W 001°26'0 0.0
2015-Feb-27 20:32N 50°54' W 001°26'0 0.0
2015-Feb-27 19:32N 50°54' W 001°26'0 0.0
2015-Feb-27 18:32N 50°54' W 001°26'0 0.0
2015-Feb-27 17:32N 50°54' W 001°26'0 0.0
2015-Feb-27 16:32N 50°54' W 001°26'0 0.0
2015-Feb-27 15:32N 50°54' W 001°26'0 0.0
2015-Feb-27 14:29N 50°54' W 001°26'0 0.0
2015-Feb-27 13:32N 50°54' W 001°26'0 0.0
2015-Feb-27 12:32N 50°54' W 001°26'0 0.0
2015-Feb-27 11:32N 50°54' W 001°26'0 0.0
2015-Feb-27 10:32N 50°54' W 001°26'0 0.0
2015-Feb-27 09:26N 50°54' W 001°26'0 0.0
2015-Feb-27 08:32N 50°54' W 001°26'0 0.0
2015-Feb-27 07:28N 50°54' W 001°26'0 0.0
2015-Feb-27 06:31N 50°54' W 001°26'0 0.0
2015-Feb-27 05:31N 50°54' W 001°26'0 0.0
2015-Feb-27 04:16N 50°54' W 001°26'0 0.0
2015-Feb-27 03:31N 50°54' W 001°26'0 0.0
2015-Feb-27 02:31N 50°54' W 001°26'0 0.0
2015-Feb-27 01:31N 50°54' W 001°26'0 0.0
2015-Feb-27 00:31N 50°54' W 001°26'0 0.0
2015-Feb-26 23:31N 50°54' W 001°26'0 0.0
2015-Feb-26 22:10N 50°54' W 001°26'0 0.0
2015-Feb-26 20:13N 50°54' W 001°26'0 0.0
2015-Feb-26 19:31N 50°54' W 001°26'0 0.0
2015-Feb-26 17:19N 50°54' W 001°26'0 0.0
2015-Feb-26 16:33N 50°54' W 001°26'0 0.0
2015-Feb-26 15:32N 50°54' W 001°26'3 3.3
2015-Feb-26 14:33N 50°52' W 001°22'7 7.4
2015-Feb-26 13:33N 50°45' W 001°24'7 6.7
2015-Feb-26 12:33N 50°42' W 001°34'6 6.1
2015-Feb-26 11:31N 50°37' W 001°41'68 6.8
2015-Feb-26 01:32N 50°13' W 003°21'7 6.7
2015-Feb-26 00:29N 50°11' W 003°31'7 6.9
2015-Feb-25 23:27N 50°09' W 003°42'70 3.7
2015-Feb-25 04:19N 50°43' W 005°17'  
Track history (hours):
 
Tides and Currents Weather Stations Pressure Air Temp Water Temp Dewpoint Dewpoint Depression Visibility Wind Speed Wind Dir Waves Ship Positions

Kaami

Last reported at 2015-Mar-04 07:33 UTC. Time now 2015-Mar-04 08:35 UTC.
Position N 51°27' E 000°21'.

Length 90 m; draft 3.6 m.

Type: Cargo ship. MMSI: 308542000.

Date/timePositionNaut miles runAvg speedWind from/ knotsBaromVisibWave heightAir tempDewpointWater temp
2015-Mar-04 07:33N 51°27' E 000°21'0 0.0
2015-Mar-04 06:34N 51°27' E 000°21'0 0.0
2015-Mar-04 05:34N 51°27' E 000°21'0 0.0
2015-Mar-04 04:33N 51°27' E 000°21'0 0.0
2015-Mar-04 03:34N 51°27' E 000°21'0 0.0
2015-Mar-04 02:32N 51°27' E 000°21'0 0.0
2015-Mar-04 01:33N 51°27' E 000°21'0 0.0
2015-Mar-04 00:32N 51°27' E 000°21'0 0.0
2015-Mar-03 23:34N 51°27' E 000°21'0 0.0
2015-Mar-03 22:34N 51°27' E 000°21'0 0.0
2015-Mar-03 21:33N 51°27' E 000°21'0 0.0
2015-Mar-03 20:32N 51°27' E 000°21'0 0.0
2015-Mar-03 19:29N 51°27' E 000°21'0 0.0
2015-Mar-03 18:32N 51°27' E 000°21'0 0.0
2015-Mar-03 17:34N 51°27' E 000°21'0 0.0
2015-Mar-03 16:32N 51°27' E 000°21'0 0.0
2015-Mar-03 15:32N 51°27' E 000°21'0 0.0
2015-Mar-03 14:34N 51°27' E 000°21'0 0.0
2015-Mar-03 13:34N 51°27' E 000°21'0 0.4
2015-Mar-03 12:34N 51°27' E 000°20'6 6.2
2015-Mar-03 11:34N 51°30' E 000°29'1110.6
2015-Mar-03 10:33N 51°29' E 000°46'10 9.6
2015-Mar-03 09:34N 51°30' E 001°02'1010.3
2015-Mar-03 08:33N 51°29' E 001°18'1010.1
2015-Mar-03 07:33N 51°30' E 001°34'10 9.7
2015-Mar-03 06:33N 51°29' E 001°50'10 9.8
2015-Mar-03 05:33N 51°25' E 002°04'10 9.9
2015-Mar-03 04:33N 51°21' E 002°19'11 9.7
2015-Mar-03 03:22N 51°23' E 002°37'7 9.0
2015-Mar-03 02:33N 51°22' E 002°49'9 9.4
2015-Mar-03 01:33N 51°22' E 003°04'6 4.5
2015-Mar-03 00:08N 51°20' E 003°13'2 4.0
2015-Mar-02 23:33N 51°18' E 003°12'2 2.1
2015-Mar-02 22:31N 51°15' E 003°13'0 0.0
2015-Mar-02 21:31N 51°15' E 003°13'0 0.0
2015-Mar-02 20:28N 51°16' E 003°13'0 0.0
2015-Mar-02 19:22N 51°15' E 003°13'0 0.0
2015-Mar-02 18:22N 51°15' E 003°13'0 0.0
2015-Mar-02 17:31N 51°15' E 003°13'0 0.0
2015-Mar-02 16:31N 51°15' E 003°13'0 0.0
2015-Mar-02 15:19N 51°15' E 003°13'0 0.0
2015-Mar-02 14:31N 51°15' E 003°13'0 0.0
2015-Mar-02 13:25N 51°15' E 003°13'0 0.0
2015-Mar-02 12:31N 51°15' E 003°13'0 0.0
2015-Mar-02 11:31N 51°15' E 003°13'0 0.0
2015-Mar-02 10:31N 51°15' E 003°13'0 0.0
2015-Mar-02 09:31N 51°15' E 003°13'0 0.0
2015-Mar-02 08:31N 51°15' E 003°13'0 0.0
2015-Mar-02 07:31N 51°15' E 003°13'0 0.0
2015-Mar-02 06:31N 51°15' E 003°13'0 0.0
2015-Mar-02 05:34N 51°15' E 003°13'0 0.0
2015-Mar-02 04:30N 51°15' E 003°13'0 0.0
2015-Mar-02 03:33N 51°15' E 003°13'0 0.0
2015-Mar-02 02:33N 51°15' E 003°13'0 0.0
2015-Mar-02 01:33N 51°15' E 003°13'0 0.0
2015-Mar-02 00:27N 51°15' E 003°13'0 0.0
2015-Mar-01 23:30N 51°15' E 003°13'0 0.0
2015-Mar-01 22:24N 51°16' E 003°13'0 0.0
2015-Mar-01 21:30N 51°15' E 003°13'0 0.0
2015-Mar-01 20:33N 51°16' E 003°13'0 0.0
2015-Mar-01 19:33N 51°15' E 003°13'0 0.0
2015-Mar-01 18:33N 51°15' E 003°13'0 0.0
2015-Mar-01 17:27N 51°15' E 003°13'0 0.0
2015-Mar-01 16:33N 51°15' E 003°13'0 0.0
2015-Mar-01 15:33N 51°15' E 003°13'0 0.0
2015-Mar-01 14:30N 51°15' E 003°13'0 0.0
2015-Mar-01 13:24N 51°15' E 003°13'0 0.0
2015-Mar-01 12:33N 51°16' E 003°13'0 0.0
2015-Mar-01 11:30N 51°15' E 003°13'0 0.0
2015-Mar-01 10:33N 51°15' E 003°13'0 0.0
2015-Mar-01 09:33N 51°15' E 003°13'0 0.0
2015-Mar-01 08:33N 51°15' E 003°13'0 0.1
2015-Mar-01 07:34N 51°16' E 003°13'3 3.0
2015-Mar-01 06:34N 51°19' E 003°12'2 1.7
2015-Mar-01 05:33N 51°20' E 003°13'6 5.6
2015-Mar-01 04:33N 51°22' E 003°04'1010.3
2015-Mar-01 03:33N 51°22' E 002°48'10 9.4
2015-Mar-01 02:30N 51°22' E 002°32'10 9.6
2015-Mar-01 01:30N 51°18' E 002°18'11 9.8
2015-Mar-01 00:26N 51°13' E 002°04'9 9.7
2015-Feb-28 23:30N 51°08' E 001°51'9 9.5
2015-Feb-28 22:33N 51°02' E 001°41'10 9.8
2015-Feb-28 21:32N 50°54' E 001°31'88 8.0
2015-Feb-28 10:33N 50°36' W 000°45'8 7.7
2015-Feb-28 09:33N 50°39' W 000°55'9 8.8
2015-Feb-28 08:33N 50°45' W 001°06'9 9.2
2015-Feb-28 07:33N 50°50' W 001°19'6 6.2
2015-Feb-28 06:32N 50°54' W 001°26'0 0.0
2015-Feb-28 05:32N 50°54' W 001°26'0 0.0
2015-Feb-28 04:32N 50°54' W 001°26'0 0.0
2015-Feb-28 03:32N 50°54' W 001°26'0 0.0
2015-Feb-28 02:32N 50°54' W 001°26'0 0.0
2015-Feb-28 01:32N 50°54' W 001°26'0 0.0
2015-Feb-28 00:32N 50°54' W 001°26'0 0.0
2015-Feb-27 23:32N 50°54' W 001°26'0 0.0
2015-Feb-27 22:32N 50°54' W 001°26'0 0.0
2015-Feb-27 21:32N 50°54' W 001°26'0 0.0
2015-Feb-27 20:32N 50°54' W 001°26'0 0.0
2015-Feb-27 19:32N 50°54' W 001°26'0 0.0
2015-Feb-27 18:32N 50°54' W 001°26'0 0.0
2015-Feb-27 17:32N 50°54' W 001°26'0 0.0
2015-Feb-27 16:32N 50°54' W 001°26'0 0.0
2015-Feb-27 15:32N 50°54' W 001°26'0 0.0
2015-Feb-27 14:29N 50°54' W 001°26'0 0.0
2015-Feb-27 13:32N 50°54' W 001°26'0 0.0
2015-Feb-27 12:32N 50°54' W 001°26'0 0.0
2015-Feb-27 11:32N 50°54' W 001°26'0 0.0
2015-Feb-27 10:32N 50°54' W 001°26'0 0.0
2015-Feb-27 09:26N 50°54' W 001°26'0 0.0
2015-Feb-27 08:32N 50°54' W 001°26'0 0.0
2015-Feb-27 07:28N 50°54' W 001°26'0 0.0
2015-Feb-27 06:31N 50°54' W 001°26'0 0.0
2015-Feb-27 05:31N 50°54' W 001°26'0 0.0
2015-Feb-27 04:16N 50°54' W 001°26'0 0.0
2015-Feb-27 03:31N 50°54' W 001°26'0 0.0
2015-Feb-27 02:31N 50°54' W 001°26'0 0.0
2015-Feb-27 01:31N 50°54' W 001°26'0 0.0
2015-Feb-27 00:31N 50°54' W 001°26'0 0.0
2015-Feb-26 23:31N 50°54' W 001°26'0 0.0
2015-Feb-26 22:10N 50°54' W 001°26'0 0.0
2015-Feb-26 20:13N 50°54' W 001°26'0 0.0
2015-Feb-26 19:31N 50°54' W 001°26'0 0.0
2015-Feb-26 17:19N 50°54' W 001°26'0 0.0
2015-Feb-26 16:33N 50°54' W 001°26'0 0.0
2015-Feb-26 15:32N 50°54' W 001°26'3 3.3
2015-Feb-26 14:33N 50°52' W 001°22'7 7.4
2015-Feb-26 13:33N 50°45' W 001°24'7 6.7
2015-Feb-26 12:33N 50°42' W 001°34'6 6.1
2015-Feb-26 11:31N 50°37' W 001°41'68 6.8
2015-Feb-26 01:32N 50°13' W 003°21'7 6.7
2015-Feb-26 00:29N 50°11' W 003°31'7 6.9
2015-Feb-25 23:27N 50°09' W 003°42'70 3.7
2015-Feb-25 04:19N 50°43' W 005°17'  

Dump ship's entire track history